Time;durP1;ratioP1;P1;durP2;ratioP2;P2;SDS_P1;SDS_P2;PMS_P1;PMS_P2;Temp;Humidity;BMP_temperature;BMP_pressure;BME280_temperature;BME280_humidity;BME280_pressure;Samples;Min_cycle;Max_cycle;Signal;HPM_P1;HPM_P2
2021/03/26 00:01:23;;;;;;;52.50;21.25;;;;;;;;;;4911729;29;20138;-75
2021/03/26 00:03:52;;;;;;;58.45;22.63;;;;;;;;;;4913969;29;20120;-75
2021/03/26 00:06:21;;;;;;;50.00;20.95;;;;;;;;;;4913162;29;20123;-75
2021/03/26 00:08:48;;;;;;;44.08;19.52;;;;;;;;;;4912918;29;20147;-75
2021/03/26 00:11:15;;;;;;;41.80;18.42;;;;;;;;;;4933643;29;20055;-75
2021/03/26 00:13:42;;;;;;;42.95;20.05;;;;;;;;;;4929129;29;20131;-75
2021/03/26 00:16:10;;;;;;;43.85;19.40;;;;;;;;;;4913185;29;20391;-75
2021/03/26 00:18:39;;;;;;;44.22;20.75;;;;;;;;;;4913164;29;20087;-75
2021/03/26 00:21:06;;;;;;;32.97;14.32;;;;;;;;;;4931237;29;20075;-75
2021/03/26 00:23:34;;;;;;;37.15;15.90;;;;;;;;;;4913585;29;20693;-76
2021/03/26 00:26:00;;;;;;;40.92;16.67;;;;;;;;;;4913717;29;20066;-75
2021/03/26 00:28:27;;;;;;;33.03;16.15;;;;;;;;;;4912377;29;20055;-75
2021/03/26 00:30:54;;;;;;;36.08;17.55;;;;;;;;;;4912181;29;20087;-75
2021/03/26 00:33:21;;;;;;;44.15;17.85;;;;;;;;;;4912513;29;20055;-75
2021/03/26 00:35:48;;;;;;;34.88;17.52;;;;;;;;;;4911630;29;20454;-75
2021/03/26 00:38:15;;;;;;;41.67;17.05;;;;;;;;;;4914186;29;20576;-75
2021/03/26 00:40:42;;;;;;;38.88;16.85;;;;;;;;;;4913877;29;20052;-75
2021/03/26 00:43:10;;;;;;;40.03;16.02;;;;;;;;;;4913092;29;20493;-76
2021/03/26 00:45:38;;;;;;;38.28;17.73;;;;;;;;;;4928911;29;20843;-76
2021/03/26 00:48:05;;;;;;;43.80;18.88;;;;;;;;;;4913095;29;20090;-76
2021/03/26 00:50:40;;;;;;;55.38;24.08;;;;;;;;;;4928575;29;20056;-75
2021/03/26 00:53:08;;;;;;;55.92;21.77;;;;;;;;;;4913209;29;20052;-75
2021/03/26 00:55:35;;;;;;;57.60;23.80;;;;;;;;;;4912112;29;20056;-75
2021/03/26 00:58:03;;;;;;;61.05;24.33;;;;;;;;;;4929849;29;20127;-74
2021/03/26 01:00:31;;;;;;;62.42;22.15;;;;;;;;;;4937138;29;20501;-75
2021/03/26 01:02:58;;;;;;;46.13;21.80;;;;;;;;;;4913753;29;20557;-75
2021/03/26 01:05:30;;;;;;;57.58;22.45;;;;;;;;;;4912992;29;20055;-75
2021/03/26 01:07:57;;;;;;;60.08;22.63;;;;;;;;;;4913417;29;20052;-75
2021/03/26 01:10:26;;;;;;;67.47;24.88;;;;;;;;;;4926206;29;20125;-75
2021/03/26 01:12:54;;;;;;;54.17;24.10;;;;;;;;;;4913354;29;20069;-76
2021/03/26 01:18:46;;;;;;;57.75;24.15;;;;;;;;;;4948867;28;20058;-75
2021/03/26 01:21:16;;;;;;;52.83;22.83;;;;;;;;;;4960621;28;20051;-76
2021/03/26 01:23:43;;;;;;;62.10;25.75;;;;;;;;;;4963309;28;20138;-76
2021/03/26 01:26:11;;;;;;;62.40;23.38;;;;;;;;;;4954139;29;20114;-82
2021/03/26 01:28:38;;;;;;;54.75;23.48;;;;;;;;;;4962328;28;20479;-83
2021/03/26 01:31:06;;;;;;;62.70;24.88;;;;;;;;;;4934255;29;20079;-82
2021/03/26 01:33:33;;;;;;;55.38;24.52;;;;;;;;;;4951579;29;20054;-82
2021/03/26 01:36:00;;;;;;;54.65;24.38;;;;;;;;;;4954198;29;20063;-82
2021/03/26 01:38:27;;;;;;;59.00;23.33;;;;;;;;;;4956518;29;20059;-82
2021/03/26 01:40:58;;;;;;;64.03;28.83;;;;;;;;;;4969309;28;20051;-82
2021/03/26 01:43:30;;;;;;;55.75;24.42;;;;;;;;;;4936978;29;20046;-82
2021/03/26 01:45:58;;;;;;;57.47;23.70;;;;;;;;;;4950375;29;20639;-82
2021/03/26 01:48:31;;;;;;;64.50;26.52;;;;;;;;;;4967543;28;20051;-82
2021/03/26 01:51:01;;;;;;;59.15;24.48;;;;;;;;;;4972225;28;20058;-82
2021/03/26 01:53:28;;;;;;;59.20;23.40;;;;;;;;;;4972279;28;20055;-82
2021/03/26 01:55:56;;;;;;;46.10;22.10;;;;;;;;;;4947163;29;20051;-83
2021/03/26 02:02:01;;;;;;;64.10;23.42;;;;;;;;;;4973898;23;20049;-75
2021/03/26 02:04:30;;;;;;;62.58;24.55;;;;;;;;;;4979843;28;20142;-77
2021/03/26 02:07:00;;;;;;;66.25;25.75;;;;;;;;;;4972742;28;20046;-75
2021/03/26 02:09:29;;;;;;;66.47;27.38;;;;;;;;;;4974116;28;20108;-82
2021/03/26 02:11:59;;;;;;;62.45;27.15;;;;;;;;;;4982875;28;20055;-83
2021/03/26 02:14:30;;;;;;;64.55;26.67;;;;;;;;;;4967820;28;20079;-82
2021/03/26 02:16:56;;;;;;;71.57;27.60;;;;;;;;;;4957742;28;20098;-82
2021/03/26 02:19:25;;;;;;;66.45;30.15;;;;;;;;;;4985022;28;20054;-81
2021/03/26 02:21:52;;;;;;;66.25;28.42;;;;;;;;;;4977427;28;20046;-82
2021/03/26 02:24:19;;;;;;;73.20;29.63;;;;;;;;;;4983225;28;20054;-81
2021/03/26 02:26:48;;;;;;;69.28;29.65;;;;;;;;;;4982354;28;20121;-83
2021/03/26 02:29:22;;;;;;;72.57;29.00;;;;;;;;;;4996731;28;20077;-82
2021/03/26 02:31:56;;;;;;;79.25;30.73;;;;;;;;;;4961386;28;20058;-83
2021/03/26 02:34:23;;;;;;;73.70;30.17;;;;;;;;;;4951311;28;20051;-82
2021/03/26 02:36:53;;;;;;;77.22;33.35;;;;;;;;;;4970445;28;20059;-82
2021/03/26 02:39:32;;;;;;;82.38;32.40;;;;;;;;;;4967947;28;20051;-82
2021/03/26 02:42:02;;;;;;;78.00;34.00;;;;;;;;;;4958132;28;20051;-82
2021/03/26 02:44:44;;;;;;;91.47;33.90;;;;;;;;;;4973141;28;20054;-82
2021/03/26 02:47:19;;;;;;;88.43;34.45;;;;;;;;;;4977168;28;20086;-82
2021/03/26 02:49:53;;;;;;;98.95;33.95;;;;;;;;;;4959677;28;20492;-82
2021/03/26 02:52:27;;;;;;;96.30;34.65;;;;;;;;;;4977695;28;20047;-81
2021/03/26 02:55:00;;;;;;;82.47;34.80;;;;;;;;;;4975562;28;20057;-82
2021/03/26 02:57:36;;;;;;;82.18;34.63;;;;;;;;;;4958825;28;20125;-82
2021/03/26 03:00:10;;;;;;;91.75;35.05;;;;;;;;;;4973884;28;20039;-81
2021/03/26 03:02:40;;;;;;;92.28;35.03;;;;;;;;;;4952428;28;20074;-82
2021/03/26 03:05:16;;;;;;;89.03;35.55;;;;;;;;;;4977454;28;20055;-83
2021/03/26 03:07:48;;;;;;;87.22;36.20;;;;;;;;;;4963420;28;20047;-82
2021/03/26 03:10:28;;;;;;;96.07;35.80;;;;;;;;;;4973931;28;20078;-82
2021/03/26 03:12:57;;;;;;;96.93;35.67;;;;;;;;;;4967556;28;20121;-82
2021/03/26 03:15:26;;;;;;;97.55;37.63;;;;;;;;;;4975876;28;20546;-82
2021/03/26 03:17:56;;;;;;;103.47;38.53;;;;;;;;;;4976109;28;20110;-82
2021/03/26 03:20:29;;;;;;;104.85;37.72;;;;;;;;;;4956965;28;20055;-82
2021/03/26 03:22:58;;;;;;;93.30;36.65;;;;;;;;;;4981730;28;20042;-82
2021/03/26 03:25:26;;;;;;;100.30;38.50;;;;;;;;;;4987225;28;20129;-82
2021/03/26 03:28:00;;;;;;;98.82;36.28;;;;;;;;;;4975933;28;20043;-82
2021/03/26 03:30:30;;;;;;;98.85;40.30;;;;;;;;;;4941174;28;20385;-82
2021/03/26 03:33:17;;;;;;;101.80;40.25;;;;;;;;;;4971555;28;20460;-82
2021/03/26 03:35:49;;;;;;;101.13;38.08;;;;;;;;;;4957811;28;20057;-81
2021/03/26 03:38:19;;;;;;;97.63;38.20;;;;;;;;;;4958945;28;20078;-81
2021/03/26 03:40:45;;;;;;;93.50;37.50;;;;;;;;;;4975303;28;20047;-82
2021/03/26 03:43:18;;;;;;;108.35;39.70;;;;;;;;;;4975841;28;20511;-81
2021/03/26 03:45:50;;;;;;;108.82;39.85;;;;;;;;;;4965950;28;20502;-81
2021/03/26 03:48:16;;;;;;;109.45;38.85;;;;;;;;;;4955088;28;20043;-82
2021/03/26 03:50:58;;;;;;;101.15;38.97;;;;;;;;;;4971781;28;20089;-82
2021/03/26 03:53:27;;;;;;;105.10;38.80;;;;;;;;;;4960174;28;20077;-81
2021/03/26 03:55:59;;;;;;;105.20;40.33;;;;;;;;;;4967416;28;20055;-81
2021/03/26 03:58:36;;;;;;;104.13;39.85;;;;;;;;;;4975736;28;20108;-81
2021/03/26 04:01:22;;;;;;;111.88;41.47;;;;;;;;;;4959165;28;20082;-82
2021/03/26 04:04:11;;;;;;;106.05;39.22;;;;;;;;;;4955948;28;20054;-81
2021/03/26 04:06:49;;;;;;;108.35;40.42;;;;;;;;;;4975345;28;20046;-81
2021/03/26 04:09:20;;;;;;;113.22;40.85;;;;;;;;;;4955798;28;20131;-81
2021/03/26 04:11:55;;;;;;;109.72;41.28;;;;;;;;;;4974228;28;20058;-81
2021/03/26 04:14:39;;;;;;;113.75;41.40;;;;;;;;;;4939270;29;20500;-81
2021/03/26 04:17:16;;;;;;;117.57;40.92;;;;;;;;;;4952468;28;20047;-81
2021/03/26 04:19:49;;;;;;;109.43;41.15;;;;;;;;;;4955459;29;20500;-81
2021/03/26 04:22:18;;;;;;;116.10;41.55;;;;;;;;;;4959587;28;20133;-81
2021/03/26 04:24:59;;;;;;;118.57;41.83;;;;;;;;;;4980652;28;20182;-81
2021/03/26 04:27:28;;;;;;;123.22;43.10;;;;;;;;;;4991724;28;20490;-81
2021/03/26 04:29:57;;;;;;;122.93;43.13;;;;;;;;;;4973252;28;20415;-81
2021/03/26 04:32:24;;;;;;;110.25;41.65;;;;;;;;;;4973647;28;20495;-81
2021/03/26 04:34:53;;;;;;;113.30;41.78;;;;;;;;;;4953843;29;20142;-81
2021/03/26 04:37:28;;;;;;;112.72;41.42;;;;;;;;;;4974776;28;20054;-81
2021/03/26 04:40:07;;;;;;;116.47;42.58;;;;;;;;;;4974818;28;20113;-81
2021/03/26 04:42:49;;;;;;;109.32;42.22;;;;;;;;;;4973815;28;20046;-80
2021/03/26 04:45:40;;;;;;;118.97;42.42;;;;;;;;;;4959555;28;20566;-81
2021/03/26 04:48:15;;;;;;;123.32;44.15;;;;;;;;;;4969341;28;20077;-82
2021/03/26 04:54:11;;;;;;;109.43;39.75;;;;;;;;;;4991212;23;20453;-75
2021/03/26 04:56:43;;;;;;;122.05;44.08;;;;;;;;;;4984513;28;20055;-75
2021/03/26 04:59:11;;;;;;;108.57;40.67;;;;;;;;;;4975452;28;20698;-75
2021/03/26 05:01:40;;;;;;;110.78;41.97;;;;;;;;;;4989128;28;20502;-75
2021/03/26 05:04:12;;;;;;;105.18;39.70;;;;;;;;;;4986364;28;20717;-75
2021/03/26 05:06:51;;;;;;;110.47;41.40;;;;;;;;;;4975534;28;20388;-75
2021/03/26 05:09:23;;;;;;;127.85;42.50;;;;;;;;;;4974626;28;20054;-75
2021/03/26 05:11:53;;;;;;;114.05;43.08;;;;;;;;;;4977067;28;20624;-75
2021/03/26 05:14:26;;;;;;;117.35;43.15;;;;;;;;;;4985317;28;20365;-75
2021/03/26 05:16:57;;;;;;;113.57;40.42;;;;;;;;;;4988512;28;20129;-75
2021/03/26 05:19:44;;;;;;;123.07;43.53;;;;;;;;;;4990196;28;20054;-75
2021/03/26 05:22:15;;;;;;;121.32;42.97;;;;;;;;;;4982847;28;20145;-76
2021/03/26 05:24:46;;;;;;;118.18;40.78;;;;;;;;;;4983579;28;20161;-75
2021/03/26 05:27:13;;;;;;;115.22;41.05;;;;;;;;;;4981999;28;20065;-75
2021/03/26 05:29:40;;;;;;;119.10;43.15;;;;;;;;;;4978635;28;20042;-75
2021/03/26 05:32:14;;;;;;;118.60;41.00;;;;;;;;;;4975872;28;20085;-75
2021/03/26 05:34:44;;;;;;;111.57;40.80;;;;;;;;;;4998806;28;20149;-75
2021/03/26 05:37:31;;;;;;;118.85;43.42;;;;;;;;;;4990333;28;20109;-75
2021/03/26 05:40:22;;;;;;;125.53;43.28;;;;;;;;;;4974081;28;20165;-75
2021/03/26 05:42:48;;;;;;;115.43;42.53;;;;;;;;;;4976657;28;20573;-75
2021/03/26 05:45:16;;;;;;;121.53;45.20;;;;;;;;;;4983027;28;20061;-75
2021/03/26 05:47:43;;;;;;;121.15;43.97;;;;;;;;;;4979160;28;20054;-75
2021/03/26 05:50:11;;;;;;;118.95;44.38;;;;;;;;;;4990167;28;20380;-75
2021/03/26 05:52:47;;;;;;;128.13;45.08;;;;;;;;;;4973448;28;20129;-76
2021/03/26 05:55:23;;;;;;;123.78;43.58;;;;;;;;;;4987277;28;20053;-75
2021/03/26 05:57:56;;;;;;;139.90;46.35;;;;;;;;;;4979093;28;20073;-76
2021/03/26 06:00:25;;;;;;;130.82;47.67;;;;;;;;;;4969575;28;20160;-76
2021/03/26 06:03:11;;;;;;;126.57;44.35;;;;;;;;;;4979930;28;20141;-75
2021/03/26 06:05:58;;;;;;;132.18;44.15;;;;;;;;;;4986636;28;20058;-75
2021/03/26 06:08:34;;;;;;;130.70;46.63;;;;;;;;;;4985112;28;20046;-76
2021/03/26 06:11:13;;;;;;;124.13;45.30;;;;;;;;;;4982062;28;20073;-76
2021/03/26 06:13:51;;;;;;;123.35;44.65;;;;;;;;;;4989601;28;20181;-76
2021/03/26 06:16:25;;;;;;;125.53;44.47;;;;;;;;;;4993469;28;20483;-77
2021/03/26 06:19:01;;;;;;;118.40;45.33;;;;;;;;;;5002391;28;20145;-78
2021/03/26 06:21:36;;;;;;;127.97;44.58;;;;;;;;;;4994253;28;20053;-77
2021/03/26 06:24:21;;;;;;;136.95;46.72;;;;;;;;;;4988516;28;20101;-75
2021/03/26 06:26:56;;;;;;;122.22;45.67;;;;;;;;;;4977245;28;20157;-76
2021/03/26 06:29:38;;;;;;;126.55;46.15;;;;;;;;;;4973432;28;20109;-75
2021/03/26 06:32:14;;;;;;;122.38;46.78;;;;;;;;;;4975801;28;20058;-75
2021/03/26 06:34:59;;;;;;;98.72;39.72;;;;;;;;;;4999140;28;20510;-76
2021/03/26 06:37:41;;;;;;;104.32;41.15;;;;;;;;;;4998931;28;20073;-76
2021/03/26 06:40:18;;;;;;;89.25;38.50;;;;;;;;;;4996410;28;20054;-77
2021/03/26 06:43:04;;;;;;;91.80;39.00;;;;;;;;;;4998498;28;20141;-76
2021/03/26 06:45:31;;;;;;;87.07;37.58;;;;;;;;;;4994400;28;20561;-75
2021/03/26 06:48:04;;;;;;;81.75;37.22;;;;;;;;;;5000024;28;20070;-76
2021/03/26 06:50:48;;;;;;;74.38;35.40;;;;;;;;;;4998871;28;20077;-76
2021/03/26 06:53:34;;;;;;;83.45;36.55;;;;;;;;;;4996013;28;20074;-76
2021/03/26 06:56:01;;;;;;;82.13;35.83;;;;;;;;;;4988103;28;20439;-76
2021/03/26 06:58:48;;;;;;;73.65;35.70;;;;;;;;;;4988257;28;20069;-79
2021/03/26 07:01:34;;;;;;;73.57;35.38;;;;;;;;;;4982674;28;20055;-79
2021/03/26 07:04:34;;;;;;;71.05;35.60;;;;;;;;;;4987333;28;20058;-78
2021/03/26 07:07:07;;;;;;;77.47;34.22;;;;;;;;;;4976502;28;20414;-76
2021/03/26 07:09:41;;;;;;;72.40;35.47;;;;;;;;;;4995179;28;20062;-76
2021/03/26 07:12:15;;;;;;;75.80;35.25;;;;;;;;;;4977943;28;20373;-76
2021/03/26 07:14:42;;;;;;;62.90;33.45;;;;;;;;;;4978651;28;20133;-76
2021/03/26 07:17:34;;;;;;;65.72;33.45;;;;;;;;;;4980768;28;20085;-76
2021/03/26 07:20:07;;;;;;;77.97;34.03;;;;;;;;;;4990927;28;20054;-77
2021/03/26 07:22:52;;;;;;;66.32;33.53;;;;;;;;;;4994795;28;20052;-76
2021/03/26 07:25:19;;;;;;;72.13;33.83;;;;;;;;;;4967203;28;20085;-76
2021/03/26 07:27:53;;;;;;;73.82;34.80;;;;;;;;;;4993518;28;20414;-76
2021/03/26 07:30:20;;;;;;;65.30;34.80;;;;;;;;;;4978433;28;20515;-77
2021/03/26 07:32:50;;;;;;;71.68;35.42;;;;;;;;;;4995692;28;20112;-76
2021/03/26 07:35:25;;;;;;;67.85;33.97;;;;;;;;;;4981115;28;20054;-77
2021/03/26 07:38:16;;;;;;;62.00;33.55;;;;;;;;;;4980481;28;20133;-76
2021/03/26 07:40:55;;;;;;;64.40;34.13;;;;;;;;;;4972818;28;20069;-77
2021/03/26 07:43:47;;;;;;;66.63;33.70;;;;;;;;;;4991104;28;20554;-77
2021/03/26 07:46:30;;;;;;;60.90;33.00;;;;;;;;;;4991251;28;20515;-77
2021/03/26 07:49:17;;;;;;;56.97;31.08;;;;;;;;;;4982067;28;20065;-77
2021/03/26 07:52:02;;;;;;;61.05;32.47;;;;;;;;;;4984710;28;20069;-77
2021/03/26 07:54:35;;;;;;;60.92;32.58;;;;;;;;;;4996179;28;20066;-76
2021/03/26 07:57:21;;;;;;;61.40;33.83;;;;;;;;;;5002461;28;20128;-77
2021/03/26 07:59:51;;;;;;;62.05;33.22;;;;;;;;;;5000686;28;20153;-77
2021/03/26 08:02:34;;;;;;;54.00;31.70;;;;;;;;;;4977419;28;20078;-77
2021/03/26 08:05:06;;;;;;;59.00;32.65;;;;;;;;;;4974950;28;20050;-77
2021/03/26 08:07:38;;;;;;;55.55;30.95;;;;;;;;;;4969746;28;20110;-77
2021/03/26 08:10:17;;;;;;;53.15;31.42;;;;;;;;;;4986902;28;20160;-77
2021/03/26 08:12:53;;;;;;;63.17;31.42;;;;;;;;;;4988809;28;20144;-77
2021/03/26 08:15:27;;;;;;;59.83;32.22;;;;;;;;;;4979686;28;20057;-77
2021/03/26 08:17:57;;;;;;;53.00;29.30;;;;;;;;;;4991321;28;20081;-77
2021/03/26 08:20:38;;;;;;;52.03;28.65;;;;;;;;;;4972934;28;20062;-77
2021/03/26 08:23:05;;;;;;;49.10;27.23;;;;;;;;;;4977979;28;20537;-77
2021/03/26 08:25:37;;;;;;;50.35;28.40;;;;;;;;;;4989202;28;20054;-77
2021/03/26 08:28:16;;;;;;;52.08;28.25;;;;;;;;;;4989680;28;20046;-77
2021/03/26 08:30:56;;;;;;;48.78;27.67;;;;;;;;;;4974981;28;20066;-77
2021/03/26 08:33:39;;;;;;;42.95;26.40;;;;;;;;;;4986601;28;20054;-77
2021/03/26 08:36:17;;;;;;;43.85;25.15;;;;;;;;;;4978538;28;20503;-77
2021/03/26 08:39:03;;;;;;;41.08;25.15;;;;;;;;;;4990112;28;20058;-77
2021/03/26 08:41:32;;;;;;;39.13;24.10;;;;;;;;;;4970165;28;20105;-77
2021/03/26 08:44:00;;;;;;;46.08;25.23;;;;;;;;;;4969610;28;20046;-77
2021/03/26 08:46:32;;;;;;;38.80;24.08;;;;;;;;;;4984459;28;20081;-77
2021/03/26 08:49:04;;;;;;;38.97;22.85;;;;;;;;;;4974854;28;20484;-77
2021/03/26 08:51:47;;;;;;;38.35;22.13;;;;;;;;;;4973516;28;20126;-77
2021/03/26 08:54:18;;;;;;;44.05;22.65;;;;;;;;;;4971286;28;20057;-77
2021/03/26 08:56:54;;;;;;;41.50;23.58;;;;;;;;;;4987513;28;20497;-77
2021/03/26 08:59:30;;;;;;;35.65;21.73;;;;;;;;;;4988626;28;20107;-78
2021/03/26 09:02:00;;;;;;;41.33;23.45;;;;;;;;;;4988502;28;20475;-78
2021/03/26 09:04:40;;;;;;;42.97;22.95;;;;;;;;;;4973186;28;20103;-77
2021/03/26 09:07:12;;;;;;;36.00;22.27;;;;;;;;;;4977803;28;20078;-76
2021/03/26 09:09:42;;;;;;;37.72;23.13;;;;;;;;;;4988587;28;20145;-76
2021/03/26 09:12:27;;;;;;;35.42;22.80;;;;;;;;;;4981421;28;20074;-76
2021/03/26 09:15:09;;;;;;;35.60;22.95;;;;;;;;;;4989228;28;20061;-76
2021/03/26 09:17:46;;;;;;;35.90;22.60;;;;;;;;;;4975366;28;20062;-73
2021/03/26 09:20:20;;;;;;;28.10;18.20;;;;;;;;;;4988966;28;21390;-75
2021/03/26 09:22:49;;;;;;;33.67;19.20;;;;;;;;;;4982919;28;20105;-75
2021/03/26 09:25:34;;;;;;;26.75;18.05;;;;;;;;;;4964488;28;20046;-75
2021/03/26 09:28:03;;;;;;;30.50;19.23;;;;;;;;;;4980196;28;20046;-75
2021/03/26 09:30:41;;;;;;;31.70;20.60;;;;;;;;;;4972947;28;20118;-76
2021/03/26 09:33:08;;;;;;;33.95;20.00;;;;;;;;;;4981895;28;20049;-77
2021/03/26 09:35:38;;;;;;;28.10;19.02;;;;;;;;;;4976865;28;20050;-80
2021/03/26 09:38:15;;;;;;;25.58;19.48;;;;;;;;;;4990723;28;20717;-78
2021/03/26 09:41:05;;;;;;;28.13;19.98;;;;;;;;;;4979962;28;20046;-78
2021/03/26 09:43:32;;;;;;;27.02;19.88;;;;;;;;;;4966046;28;20057;-78
2021/03/26 09:46:12;;;;;;;35.47;21.65;;;;;;;;;;4982205;28;20078;-78
2021/03/26 09:48:48;;;;;;;35.47;22.27;;;;;;;;;;4996226;28;20154;-79
2021/03/26 09:51:39;;;;;;;33.60;23.40;;;;;;;;;;4971760;28;20061;-77
2021/03/26 09:54:12;;;;;;;36.85;23.65;;;;;;;;;;4973480;28;20046;-79
2021/03/26 09:57:11;;;;;;;34.22;23.42;;;;;;;;;;4989897;28;20561;-78
2021/03/26 09:59:57;;;;;;;32.15;23.50;;;;;;;;;;4951143;28;20069;-78
2021/03/26 10:02:34;;;;;;;33.85;23.02;;;;;;;;;;4975929;28;20132;-78
2021/03/26 10:05:12;;;;;;;38.67;26.38;;;;;;;;;;4979376;28;20042;-77
2021/03/26 10:07:48;;;;;;;35.83;24.33;;;;;;;;;;4982488;28;20515;-78
2021/03/26 10:13:02;;;;;;;37.42;25.02;;;;;;;;;;4993643;28;20050;-76
2021/03/26 10:15:40;;;;;;;38.08;27.70;;;;;;;;;;4983898;28;20050;-76
2021/03/26 10:18:10;;;;;;;34.25;24.90;;;;;;;;;;4985093;28;20050;-76
2021/03/26 10:20:42;;;;;;;42.17;25.23;;;;;;;;;;4982907;28;20046;-78
2021/03/26 10:23:17;;;;;;;33.83;24.48;;;;;;;;;;5000325;28;20085;-79
2021/03/26 10:25:48;;;;;;;34.05;25.52;;;;;;;;;;4976370;28;20050;-79
2021/03/26 10:28:30;;;;;;;37.63;26.88;;;;;;;;;;4967482;28;20058;-76
2021/03/26 10:31:05;;;;;;;73.68;29.65;;;;;;;;;;4978269;28;20042;-78
2021/03/26 10:33:34;;;;;;;71.65;28.95;;;;;;;;;;4984690;28;20080;-77
2021/03/26 10:36:01;;;;;;;48.33;28.65;;;;;;;;;;5001194;28;20181;-78
2021/03/26 10:38:47;;;;;;;58.00;29.35;;;;;;;;;;4978802;28;20446;-80
2021/03/26 10:41:41;;;;;;;62.15;28.40;;;;;;;;;;4975737;28;20404;-76
2021/03/26 10:44:26;;;;;;;33.72;22.17;;;;;;;;;;4973267;28;20069;-84
2021/03/26 10:47:15;;;;;;;34.97;23.83;;;;;;;;;;4990199;28;20416;-84
2021/03/26 10:49:56;;;;;;;37.15;25.08;;;;;;;;;;4941313;28;20090;-83
2021/03/26 10:52:31;;;;;;;43.95;26.23;;;;;;;;;;4994231;28;20134;-84
2021/03/26 10:55:10;;;;;;;41.42;25.40;;;;;;;;;;4973244;28;20050;-86
2021/03/26 10:57:41;;;;;;;37.17;21.73;;;;;;;;;;4992592;28;20095;-86
2021/03/26 11:00:21;;;;;;;34.72;20.80;;;;;;;;;;4980806;28;20480;-87
2021/03/26 11:03:02;;;;;;;30.25;20.13;;;;;;;;;;4999890;28;20101;-87
2021/03/26 11:05:33;;;;;;;59.88;22.98;;;;;;;;;;4965868;28;20101;-85
2021/03/26 11:07:59;;;;;;;51.20;24.75;;;;;;;;;;4982002;28;20452;-84
2021/03/26 11:10:35;;;;;;;27.63;20.27;;;;;;;;;;4997030;28;20073;-82
2021/03/26 11:13:10;;;;;;;29.15;19.77;;;;;;;;;;4990722;28;20047;-82
2021/03/26 11:15:38;;;;;;;28.48;21.48;;;;;;;;;;4996965;28;20088;-86
2021/03/26 11:18:15;;;;;;;37.80;22.08;;;;;;;;;;4979136;28;20664;-83
2021/03/26 11:20:59;;;;;;;43.30;22.63;;;;;;;;;;4973282;28;20054;-84
2021/03/26 11:23:27;;;;;;;48.47;23.98;;;;;;;;;;4987126;28;20100;-84
2021/03/26 11:26:06;;;;;;;31.20;21.23;;;;;;;;;;4977542;28;20061;-84
2021/03/26 11:28:46;;;;;;;31.15;22.15;;;;;;;;;;4982666;28;20549;-87
2021/03/26 11:31:21;;;;;;;27.70;21.02;;;;;;;;;;4994936;28;20077;-88
2021/03/26 11:34:01;;;;;;;59.25;25.33;;;;;;;;;;4964908;28;20528;-86
2021/03/26 11:36:36;;;;;;;48.70;32.33;;;;;;;;;;4975388;28;20550;-83
2021/03/26 11:39:23;;;;;;;37.70;24.60;;;;;;;;;;4971281;28;20081;-89
2021/03/26 11:41:59;;;;;;;33.72;23.10;;;;;;;;;;4974667;28;20131;-91
2021/03/26 11:44:31;;;;;;;33.13;23.17;;;;;;;;;;4994179;28;20058;-91
2021/03/26 11:47:02;;;;;;;30.15;22.80;;;;;;;;;;4990509;28;20077;-92
2021/03/26 11:49:36;;;;;;;44.20;25.30;;;;;;;;;;4993060;28;20062;-92
2021/03/26 11:52:12;;;;;;;29.88;22.10;;;;;;;;;;4979708;28;20046;-93
2021/03/26 11:54:42;;;;;;;33.10;22.65;;;;;;;;;;4960610;28;20046;-93
2021/03/26 11:57:27;;;;;;;38.35;27.75;;;;;;;;;;4958737;28;20047;-92
2021/03/26 12:02:52;;;;;;;38.33;24.95;;;;;;;;;;4976865;28;20117;-92
2021/03/26 12:05:51;;;;;;;41.13;25.05;;;;;;;;;;4960852;28;20350;-93
2021/03/26 12:08:22;;;;;;;45.15;26.70;;;;;;;;;;4954705;29;20052;-92
2021/03/26 12:11:10;;;;;;;60.20;34.75;;;;;;;;;;4940747;29;20397;-92
2021/03/26 12:13:45;;;;;;;49.17;28.10;;;;;;;;;;4940596;28;20100;-84
2021/03/26 12:16:17;;;;;;;45.95;26.58;;;;;;;;;;4957365;28;20571;-89
2021/03/26 12:18:55;;;;;;;44.30;25.70;;;;;;;;;;4953989;28;20129;-91
2021/03/26 12:21:34;;;;;;;45.90;25.27;;;;;;;;;;4953026;28;20093;-89
2021/03/26 12:24:12;;;;;;;39.38;24.17;;;;;;;;;;4966305;28;20047;-90
2021/03/26 12:26:41;;;;;;;42.53;24.20;;;;;;;;;;4943430;28;20042;-88
2021/03/26 12:29:20;;;;;;;43.53;24.45;;;;;;;;;;4946344;28;20051;-88
2021/03/26 12:32:09;;;;;;;47.35;24.25;;;;;;;;;;4947754;28;20066;-86
2021/03/26 12:34:57;;;;;;;37.97;24.25;;;;;;;;;;4955373;28;20053;-90
2021/03/26 12:37:43;;;;;;;38.72;24.92;;;;;;;;;;4962714;28;20051;-88
2021/03/26 12:40:18;;;;;;;37.63;25.77;;;;;;;;;;4953845;28;20117;-87
2021/03/26 12:42:50;;;;;;;38.47;24.02;;;;;;;;;;4966954;28;20408;-87
2021/03/26 12:45:23;;;;;;;39.72;25.33;;;;;;;;;;4950260;28;20050;-86
2021/03/26 12:47:54;;;;;;;41.30;25.67;;;;;;;;;;4965921;28;20137;-85
2021/03/26 12:50:23;;;;;;;40.38;25.80;;;;;;;;;;4953364;28;20113;-86
2021/03/26 12:52:56;;;;;;;42.83;26.58;;;;;;;;;;4973799;28;20642;-86
2021/03/26 12:55:42;;;;;;;43.63;26.30;;;;;;;;;;4971054;28;20145;-90
2021/03/26 12:58:09;;;;;;;50.33;28.08;;;;;;;;;;4973058;28;20051;-90
2021/03/26 13:00:46;;;;;;;61.15;34.92;;;;;;;;;;4975712;28;20046;-81
2021/03/26 13:03:40;;;;;;;43.88;26.13;;;;;;;;;;4997430;28;20060;-88
2021/03/26 13:06:12;;;;;;;52.67;24.77;;;;;;;;;;4973517;28;20141;-83
2021/03/26 13:08:52;;;;;;;38.28;23.52;;;;;;;;;;4988667;28;20046;-84
2021/03/26 13:11:28;;;;;;;41.17;23.00;;;;;;;;;;4975581;28;20132;-84
2021/03/26 13:14:08;;;;;;;33.97;22.27;;;;;;;;;;4974585;28;20081;-85
2021/03/26 13:16:44;;;;;;;38.33;21.65;;;;;;;;;;4967801;28;20483;-85
2021/03/26 13:19:17;;;;;;;43.45;21.48;;;;;;;;;;4985884;28;20137;-81
2021/03/26 13:21:48;;;;;;;38.88;23.08;;;;;;;;;;4970959;28;20050;-80
2021/03/26 13:24:20;;;;;;;42.65;24.17;;;;;;;;;;4983032;28;20050;-82
2021/03/26 13:27:09;;;;;;;40.58;24.40;;;;;;;;;;4966720;28;20058;-82
2021/03/26 13:29:39;;;;;;;44.15;25.77;;;;;;;;;;4972306;28;20105;-81
2021/03/26 13:32:07;;;;;;;46.47;24.30;;;;;;;;;;4974600;28;20082;-80
2021/03/26 13:34:41;;;;;;;40.35;23.17;;;;;;;;;;4966492;28;20050;-80
2021/03/26 13:40:11;;;;;;;41.50;22.42;;;;;;;;;;4978705;28;20046;-82
2021/03/26 13:42:41;;;;;;;38.90;22.20;;;;;;;;;;4978699;28;20046;-83
2021/03/26 13:45:14;;;;;;;42.63;22.23;;;;;;;;;;4997692;28;20050;-83
2021/03/26 13:47:51;;;;;;;38.42;22.63;;;;;;;;;;4995659;28;20058;-82
2021/03/26 13:50:44;;;;;;;40.72;22.15;;;;;;;;;;4982102;28;20785;-84
2021/03/26 13:53:21;;;;;;;41.63;22.92;;;;;;;;;;4935232;28;20054;-83
2021/03/26 13:55:49;;;;;;;39.13;20.77;;;;;;;;;;4998228;28;20078;-83
2021/03/26 13:58:41;;;;;;;38.17;21.90;;;;;;;;;;4981393;28;20550;-82
2021/03/26 14:01:13;;;;;;;36.40;20.85;;;;;;;;;;4938211;28;20153;-82
2021/03/26 14:03:51;;;;;;;35.80;21.05;;;;;;;;;;4980316;28;20058;-82
2021/03/26 14:06:45;;;;;;;35.67;22.35;;;;;;;;;;4980476;28;20137;-82
2021/03/26 14:09:15;;;;;;;37.15;21.73;;;;;;;;;;4975426;28;20105;-83
2021/03/26 14:12:04;;;;;;;49.53;21.90;;;;;;;;;;4997651;28;20117;-84
2021/03/26 14:14:39;;;;;;;37.70;21.20;;;;;;;;;;4962013;28;20077;-82
2021/03/26 14:17:08;;;;;;;41.63;22.25;;;;;;;;;;4998188;28;20096;-82
2021/03/26 14:19:57;;;;;;;36.58;22.00;;;;;;;;;;5017748;28;20050;-81
2021/03/26 14:22:30;;;;;;;36.13;20.95;;;;;;;;;;4981278;28;20496;-85
2021/03/26 14:24:56;;;;;;;42.30;22.63;;;;;;;;;;4981864;28;20058;-81
2021/03/26 14:27:42;;;;;;;36.10;21.38;;;;;;;;;;4981102;28;20054;-81
2021/03/26 14:30:16;;;;;;;39.53;23.83;;;;;;;;;;4981902;28;20046;-80
2021/03/26 14:32:46;;;;;;;35.50;21.13;;;;;;;;;;4991442;28;20051;-85
2021/03/26 14:35:20;;;;;;;36.72;21.55;;;;;;;;;;4981610;28;20054;-86
2021/03/26 14:37:58;;;;;;;33.95;20.73;;;;;;;;;;4980252;28;20061;-85
2021/03/26 14:40:27;;;;;;;34.40;21.10;;;;;;;;;;4979854;28;20726;-85
2021/03/26 14:43:02;;;;;;;36.42;21.77;;;;;;;;;;4979264;28;20057;-84
2021/03/26 14:45:29;;;;;;;;;;;;;;;;;;4980548;28;20050;-84
2021/03/26 14:48:09;;;;;;;45.78;22.27;;;;;;;;;;4979864;28;20391;-85
2021/03/26 14:50:37;;;;;;;38.67;21.50;;;;;;;;;;4982105;28;20046;-85
2021/03/26 14:53:07;;;;;;;38.22;21.55;;;;;;;;;;4980814;28;20050;-85
2021/03/26 14:55:40;;;;;;;40.80;21.25;;;;;;;;;;4980049;28;20157;-86
2021/03/26 14:58:18;;;;;;;35.08;22.90;;;;;;;;;;4995659;28;20078;-85
2021/03/26 15:00:49;;;;;;;30.45;20.38;;;;;;;;;;4996131;28;20058;-86
2021/03/26 15:03:22;;;;;;;35.67;21.00;;;;;;;;;;4995747;28;20054;-86
2021/03/26 15:06:03;;;;;;;34.28;20.30;;;;;;;;;;4994026;28;20112;-85
2021/03/26 15:08:35;;;;;;;33.38;21.92;;;;;;;;;;4995344;28;20054;-86
2021/03/26 15:11:05;;;;;;;38.65;22.08;;;;;;;;;;4976796;28;20129;-85
2021/03/26 15:13:44;;;;;;;36.03;20.30;;;;;;;;;;4978970;28;20066;-85
2021/03/26 15:16:18;;;;;;;31.90;19.73;;;;;;;;;;4979002;28;20133;-85